Time;durP1;ratioP1;P1;durP2;ratioP2;P2;SDS_P1;SDS_P2;PMS_P1;PMS_P2;Temp;Humidity;BMP_temperature;BMP_pressure;BME280_temperature;BME280_humidity;BME280_pressure;Samples;Min_cycle;Max_cycle;Signal;HPM_P1;HPM_P2
2023/10/21 00:00:31;;;;;;;10.13;1.20;;;;;;;;;;5070838;28;20028;-81
2023/10/21 00:02:57;;;;;;;0.17;0.17;;;;;;;;;;5070377;28;20032;-79
2023/10/21 00:05:24;;;;;;;0.15;0.15;;;;;;;;;;5068764;28;20028;-79
2023/10/21 00:07:51;;;;;;;0.13;0.13;;;;;;;;;;5070626;28;20050;-82
2023/10/21 00:10:17;;;;;;;0.10;0.10;;;;;;;;;;5053147;28;20044;-80
2023/10/21 00:12:44;;;;;;;0.20;0.20;;;;;;;;;;5078414;28;20117;-81
2023/10/21 00:15:10;;;;;;;0.10;0.10;;;;;;;;;;5091877;28;20085;-79
2023/10/21 00:17:36;;;;;;;0.20;0.20;;;;;;;;;;5092565;28;20044;-79
2023/10/21 00:20:03;;;;;;;0.20;0.20;;;;;;;;;;5092167;28;20371;-80
2023/10/21 00:22:29;;;;;;;6.65;0.85;;;;;;;;;;5063014;28;20040;-84
2023/10/21 00:24:54;;;;;;;0.15;0.15;;;;;;;;;;5071020;28;20606;-80
2023/10/21 00:27:20;;;;;;;0.10;0.10;;;;;;;;;;5053254;28;20139;-82
2023/10/21 00:29:45;;;;;;;0.17;0.17;;;;;;;;;;5072474;28;20024;-79
2023/10/21 00:32:11;;;;;;;0.20;0.20;;;;;;;;;;5071622;28;20535;-77
2023/10/21 00:34:39;;;;;;;0.10;0.10;;;;;;;;;;5052787;28;20041;-79
2023/10/21 00:37:07;;;;;;;5.17;1.00;;;;;;;;;;5072326;28;20033;-79
2023/10/21 00:39:35;;;;;;;3.42;1.20;;;;;;;;;;5070776;28;20269;-83
2023/10/21 00:42:01;;;;;;;4.68;0.98;;;;;;;;;;5076141;28;20085;-79
2023/10/21 00:44:27;;;;;;;4.55;0.57;;;;;;;;;;5090612;28;20036;-76
2023/10/21 00:46:53;;;;;;;5.13;0.50;;;;;;;;;;5090613;28;20027;-78
2023/10/21 00:49:19;;;;;;;1.48;0.55;;;;;;;;;;5090472;28;20055;-77
2023/10/21 00:51:46;;;;;;;0.13;0.13;;;;;;;;;;5091226;28;20499;-76
2023/10/21 00:54:12;;;;;;;3.80;0.38;;;;;;;;;;5092047;28;20052;-77
2023/10/21 00:56:40;;;;;;;8.30;0.63;;;;;;;;;;5073880;28;20076;-77
2023/10/21 00:59:06;;;;;;;4.38;0.52;;;;;;;;;;5092559;28;20028;-75
2023/10/21 01:01:34;;;;;;;0.68;0.30;;;;;;;;;;5092371;28;20081;-76
2023/10/21 01:04:01;;;;;;;0.20;0.20;;;;;;;;;;5092628;28;20075;-76
2023/10/21 01:06:26;;;;;;;0.20;0.20;;;;;;;;;;5092342;28;20032;-76
2023/10/21 01:08:52;;;;;;;0.47;0.38;;;;;;;;;;5092489;28;20103;-76
2023/10/21 01:11:18;;;;;;;6.20;1.13;;;;;;;;;;5092284;28;20467;-77
2023/10/21 01:13:44;;;;;;;3.35;0.45;;;;;;;;;;5074092;28;20054;-77
2023/10/21 01:16:10;;;;;;;4.18;0.52;;;;;;;;;;5092134;28;20020;-76
2023/10/21 01:18:38;;;;;;;1.83;0.25;;;;;;;;;;5092443;28;20036;-77
2023/10/21 01:21:04;;;;;;;0.10;0.10;;;;;;;;;;5092388;28;20085;-78
2023/10/21 01:23:30;;;;;;;0.10;0.10;;;;;;;;;;5092037;28;20035;-77
2023/10/21 01:25:56;;;;;;;0.10;0.10;;;;;;;;;;5074100;28;20429;-77
2023/10/21 01:28:21;;;;;;;0.20;0.20;;;;;;;;;;5070123;28;20071;-78
2023/10/21 01:30:47;;;;;;;0.15;0.15;;;;;;;;;;5070463;28;20029;-76
2023/10/21 01:33:13;;;;;;;0.10;0.10;;;;;;;;;;5073263;28;20037;-78
2023/10/21 01:35:39;;;;;;;0.15;0.15;;;;;;;;;;5074983;28;20025;-80
2023/10/21 01:38:04;;;;;;;0.10;0.10;;;;;;;;;;5056872;28;20484;-80
2023/10/21 01:40:30;;;;;;;0.10;0.10;;;;;;;;;;5074188;28;20028;-81
2023/10/21 01:42:56;;;;;;;0.10;0.10;;;;;;;;;;5075481;28;20369;-79
2023/10/21 01:45:23;;;;;;;0.13;0.13;;;;;;;;;;5057319;28;20392;-78
2023/10/21 01:47:48;;;;;;;0.28;0.20;;;;;;;;;;5075292;28;20033;-78
2023/10/21 01:50:14;;;;;;;0.10;0.10;;;;;;;;;;5075197;28;20036;-78
2023/10/21 01:52:40;;;;;;;0.10;0.10;;;;;;;;;;5075035;28;20037;-79
2023/10/21 01:55:06;;;;;;;0.13;0.13;;;;;;;;;;5075012;28;20515;-76
2023/10/21 01:57:32;;;;;;;0.13;0.13;;;;;;;;;;5056646;28;20142;-76
2023/10/21 01:59:58;;;;;;;0.20;0.20;;;;;;;;;;5055227;28;20587;-75
2023/10/21 02:02:25;;;;;;;0.10;0.10;;;;;;;;;;5072993;28;20028;-75
2023/10/21 02:04:51;;;;;;;0.20;0.20;;;;;;;;;;5038480;28;20036;-75
2023/10/21 02:07:17;;;;;;;0.10;0.10;;;;;;;;;;5055025;28;20032;-76
2023/10/21 02:09:42;;;;;;;0.10;0.10;;;;;;;;;;5073181;28;20040;-80
2023/10/21 02:12:09;;;;;;;0.10;0.10;;;;;;;;;;5055795;28;20031;-80
2023/10/21 02:14:34;;;;;;;0.20;0.20;;;;;;;;;;5055794;28;20032;-81
2023/10/21 02:17:00;;;;;;;0.13;0.13;;;;;;;;;;5056570;28;20069;-79
2023/10/21 02:19:25;;;;;;;0.20;0.20;;;;;;;;;;5056852;28;20120;-79
2023/10/21 02:21:51;;;;;;;3.42;0.73;;;;;;;;;;5056638;28;20040;-79
2023/10/21 02:24:17;;;;;;;0.13;0.13;;;;;;;;;;5074435;28;20033;-78
2023/10/21 02:26:42;;;;;;;0.10;0.10;;;;;;;;;;5073732;28;20458;-78
2023/10/21 02:29:08;;;;;;;0.10;0.10;;;;;;;;;;5074351;28;20029;-78
2023/10/21 02:31:34;;;;;;;0.20;0.20;;;;;;;;;;5056725;28;20032;-78
2023/10/21 02:34:00;;;;;;;0.17;0.17;;;;;;;;;;5074665;28;20097;-79
2023/10/21 02:36:26;;;;;;;0.15;0.15;;;;;;;;;;5074441;28;20036;-79
2023/10/21 02:38:52;;;;;;;0.20;0.20;;;;;;;;;;5073991;28;20032;-78
2023/10/21 02:41:18;;;;;;;0.15;0.15;;;;;;;;;;5074270;28;20480;-80
2023/10/21 02:43:44;;;;;;;0.10;0.10;;;;;;;;;;5073691;28;20107;-81
2023/10/21 02:46:10;;;;;;;0.15;0.15;;;;;;;;;;5074124;28;20043;-81
2023/10/21 02:48:36;;;;;;;0.10;0.10;;;;;;;;;;5074355;28;20070;-81
2023/10/21 02:51:11;;;;;;;0.10;0.10;;;;;;;;;;5074310;28;20059;-80
2023/10/21 02:53:37;;;;;;;0.10;0.10;;;;;;;;;;5073929;28;20500;-79
2023/10/21 02:56:06;;;;;;;0.10;0.10;;;;;;;;;;5073914;28;20125;-79
2023/10/21 02:58:32;;;;;;;0.20;0.20;;;;;;;;;;5055347;28;20036;-79
2023/10/21 03:00:59;;;;;;;0.10;0.10;;;;;;;;;;5074243;28;20028;-79
2023/10/21 03:03:26;;;;;;;0.20;0.20;;;;;;;;;;5081359;28;20091;-77
2023/10/21 03:05:51;;;;;;;0.20;0.20;;;;;;;;;;5090547;28;20039;-77
2023/10/21 03:08:18;;;;;;;0.10;0.10;;;;;;;;;;5090364;28;20021;-77
2023/10/21 03:10:43;;;;;;;0.10;0.10;;;;;;;;;;5089894;28;20036;-77
2023/10/21 03:13:09;;;;;;;0.10;0.10;;;;;;;;;;5072063;28;20036;-77
2023/10/21 03:15:35;;;;;;;0.20;0.20;;;;;;;;;;5072319;28;20089;-78
2023/10/21 03:18:01;;;;;;;0.20;0.20;;;;;;;;;;5090072;28;20102;-77
2023/10/21 03:20:27;;;;;;;0.10;0.10;;;;;;;;;;5055177;28;20583;-78
2023/10/21 03:22:52;;;;;;;0.10;0.10;;;;;;;;;;5090306;28;20043;-78
2023/10/21 03:25:18;;;;;;;0.20;0.20;;;;;;;;;;5089814;28;20036;-74
2023/10/21 03:27:45;;;;;;;0.10;0.10;;;;;;;;;;5072478;28;20059;-78
2023/10/21 03:30:11;;;;;;;0.10;0.10;;;;;;;;;;5090329;28;20031;-77
2023/10/21 03:32:38;;;;;;;0.10;0.10;;;;;;;;;;5089527;28;20115;-77
2023/10/21 03:35:04;;;;;;;0.10;0.10;;;;;;;;;;5070677;28;20743;-77
2023/10/21 03:37:30;;;;;;;0.10;0.10;;;;;;;;;;5087988;28;20089;-75
2023/10/21 03:39:55;;;;;;;0.10;0.10;;;;;;;;;;5087801;28;20126;-76
2023/10/21 03:42:21;;;;;;;0.13;0.13;;;;;;;;;;5089161;28;20116;-79
2023/10/21 03:44:47;;;;;;;0.17;0.17;;;;;;;;;;5071466;28;20185;-76
2023/10/21 03:47:13;;;;;;;0.10;0.10;;;;;;;;;;5089779;28;20465;-78
2023/10/21 03:49:39;;;;;;;0.20;0.20;;;;;;;;;;5071566;28;20036;-78
2023/10/21 03:52:04;;;;;;;0.10;0.10;;;;;;;;;;5071349;28;20117;-78
2023/10/21 03:54:30;;;;;;;0.13;0.13;;;;;;;;;;5071374;28;20040;-77
2023/10/21 03:56:55;;;;;;;0.17;0.17;;;;;;;;;;5089870;28;20028;-78
2023/10/21 03:59:21;;;;;;;0.30;0.30;;;;;;;;;;5088764;28;20111;-77
2023/10/21 04:01:47;;;;;;;1.70;0.80;;;;;;;;;;5089271;28;20376;-77
2023/10/21 04:04:13;;;;;;;0.20;0.20;;;;;;;;;;5089398;28;20067;-79
2023/10/21 04:06:39;;;;;;;0.15;0.15;;;;;;;;;;5089478;28;20032;-78
2023/10/21 04:09:04;;;;;;;0.10;0.10;;;;;;;;;;5089147;28;20039;-78
2023/10/21 04:11:30;;;;;;;0.10;0.10;;;;;;;;;;5089347;28;20063;-78
2023/10/21 04:13:56;;;;;;;0.13;0.13;;;;;;;;;;5089091;28;20044;-78
2023/10/21 04:16:21;;;;;;;0.20;0.20;;;;;;;;;;5071048;28;20040;-77
2023/10/21 04:18:47;;;;;;;0.10;0.10;;;;;;;;;;5089399;28;20035;-76
2023/10/21 04:21:13;;;;;;;0.13;0.13;;;;;;;;;;5089165;28;20123;-77
2023/10/21 04:23:39;;;;;;;0.10;0.10;;;;;;;;;;5088963;28;20062;-77
2023/10/21 04:26:05;;;;;;;0.10;0.10;;;;;;;;;;5088992;28;20032;-78
2023/10/21 04:28:31;;;;;;;0.40;0.40;;;;;;;;;;5088485;28;20488;-78
2023/10/21 04:30:57;;;;;;;0.10;0.10;;;;;;;;;;5088058;28;20083;-75
2023/10/21 04:33:22;;;;;;;0.10;0.10;;;;;;;;;;5069032;28;20058;-76
2023/10/21 04:35:48;;;;;;;0.20;0.20;;;;;;;;;;5086851;28;20507;-77
2023/10/21 04:38:14;;;;;;;0.20;0.20;;;;;;;;;;5085714;28;20036;-76
2023/10/21 04:40:39;;;;;;;0.10;0.10;;;;;;;;;;5085953;28;20342;-77
2023/10/21 04:43:05;;;;;;;0.20;0.20;;;;;;;;;;5085771;28;20032;-77
2023/10/21 04:45:31;;;;;;;0.10;0.10;;;;;;;;;;5085929;28;20059;-77
2023/10/21 04:47:56;;;;;;;0.10;0.10;;;;;;;;;;5087653;28;20027;-77
2023/10/21 04:50:22;;;;;;;0.10;0.10;;;;;;;;;;5087744;28;20036;-79
2023/10/21 04:52:48;;;;;;;0.30;0.30;;;;;;;;;;5088504;28;20391;-78
2023/10/21 04:55:13;;;;;;;0.20;0.20;;;;;;;;;;5088266;28;20032;-79
2023/10/21 04:57:40;;;;;;;0.45;0.28;;;;;;;;;;5077962;28;20028;-77
2023/10/21 05:00:08;;;;;;;0.17;0.17;;;;;;;;;;5079121;28;20028;-79
2023/10/21 05:02:33;;;;;;;4.85;3.40;;;;;;;;;;5087171;28;20121;-78
2023/10/21 05:05:00;;;;;;;0.10;0.10;;;;;;;;;;5080640;28;20078;-78
2023/10/21 05:07:26;;;;;;;0.82;0.82;;;;;;;;;;5085813;28;20479;-76
2023/10/21 05:09:51;;;;;;;0.20;0.20;;;;;;;;;;5074330;28;20054;-77
2023/10/21 05:12:19;;;;;;;3.28;0.90;;;;;;;;;;5072386;28;20040;-75
2023/10/21 05:14:45;;;;;;;0.93;0.40;;;;;;;;;;5091558;28;20392;-75
2023/10/21 05:17:11;;;;;;;8.18;1.70;;;;;;;;;;5091645;28;20361;-82
2023/10/21 05:19:37;;;;;;;0.10;0.10;;;;;;;;;;5091926;28;20043;-74
2023/10/21 05:22:03;;;;;;;4.20;0.80;;;;;;;;;;5073718;28;20032;-79
2023/10/21 05:24:29;;;;;;;6.00;0.75;;;;;;;;;;5091133;28;20036;-78
2023/10/21 05:26:55;;;;;;;0.82;0.10;;;;;;;;;;5089595;28;20027;-79
2023/10/21 05:29:20;;;;;;;0.57;0.35;;;;;;;;;;5063968;28;20033;-78
2023/10/21 05:31:47;;;;;;;4.50;0.45;;;;;;;;;;5088883;28;20450;-76
2023/10/21 05:34:17;;;;;;;2.42;0.65;;;;;;;;;;5091461;28;20379;-73
2023/10/21 05:36:44;;;;;;;0.40;0.28;;;;;;;;;;5089829;28;20036;-78
2023/10/21 05:39:12;;;;;;;2.95;0.63;;;;;;;;;;5090935;28;20032;-78
2023/10/21 05:41:38;;;;;;;0.45;0.20;;;;;;;;;;5091075;28;20048;-75
2023/10/21 05:44:04;;;;;;;1.55;0.40;;;;;;;;;;5091520;28;20475;-77
2023/10/21 05:46:30;;;;;;;1.40;0.63;;;;;;;;;;5091244;28;20058;-76
2023/10/21 05:48:56;;;;;;;4.43;0.90;;;;;;;;;;5091246;28;20388;-77
2023/10/21 05:51:22;;;;;;;11.18;0.85;;;;;;;;;;5091093;28;20122;-77
2023/10/21 05:53:47;;;;;;;4.18;1.25;;;;;;;;;;5091147;28;20078;-78
2023/10/21 05:56:13;;;;;;;2.47;0.85;;;;;;;;;;5091165;28;20044;-78
2023/10/21 05:58:40;;;;;;;5.75;0.60;;;;;;;;;;5091143;28;20395;-79
2023/10/21 06:01:08;;;;;;;3.83;1.98;;;;;;;;;;5088495;28;20109;-79
2023/10/21 06:03:34;;;;;;;2.30;0.47;;;;;;;;;;5091927;28;20150;-78
2023/10/21 06:06:00;;;;;;;2.17;0.52;;;;;;;;;;5089155;28;20012;-79
2023/10/21 06:08:25;;;;;;;0.40;0.40;;;;;;;;;;5091362;28;20043;-81
2023/10/21 06:10:51;;;;;;;0.52;0.45;;;;;;;;;;5090685;28;20028;-78
2023/10/21 06:13:17;;;;;;;0.20;0.20;;;;;;;;;;5091102;28;20046;-76
2023/10/21 06:15:43;;;;;;;0.10;0.10;;;;;;;;;;5091182;28;20040;-77
2023/10/21 06:18:09;;;;;;;0.50;0.50;;;;;;;;;;5090619;28;20040;-76
2023/10/21 06:20:35;;;;;;;7.15;0.60;;;;;;;;;;5089712;28;20093;-75
2023/10/21 06:23:00;;;;;;;0.10;0.10;;;;;;;;;;5091199;28;20529;-76
2023/10/21 06:25:26;;;;;;;0.52;0.52;;;;;;;;;;5089552;28;20094;-79
2023/10/21 06:27:52;;;;;;;0.10;0.10;;;;;;;;;;5090846;28;20468;-79
2023/10/21 06:30:17;;;;;;;0.13;0.13;;;;;;;;;;5090818;28;20120;-79
2023/10/21 06:32:43;;;;;;;1.85;0.80;;;;;;;;;;5089129;28;20387;-77
2023/10/21 06:35:09;;;;;;;0.10;0.10;;;;;;;;;;5089475;28;20036;-77
2023/10/21 06:37:34;;;;;;;0.10;0.10;;;;;;;;;;5089471;28;20039;-78
2023/10/21 06:40:00;;;;;;;0.10;0.10;;;;;;;;;;5090601;28;20032;-78
2023/10/21 06:42:25;;;;;;;0.10;0.10;;;;;;;;;;5072763;28;20032;-79
2023/10/21 06:44:51;;;;;;;0.10;0.10;;;;;;;;;;5090218;28;20035;-78
2023/10/21 06:47:17;;;;;;;1.95;0.80;;;;;;;;;;5090589;28;20088;-78
2023/10/21 06:49:45;;;;;;;0.20;0.20;;;;;;;;;;5090922;28;20423;-78
2023/10/21 06:52:10;;;;;;;0.10;0.10;;;;;;;;;;5090589;28;20035;-77
2023/10/21 06:54:36;;;;;;;0.10;0.10;;;;;;;;;;5083068;28;20455;-79
2023/10/21 06:57:01;;;;;;;0.20;0.20;;;;;;;;;;5079130;28;20538;-76
2023/10/21 06:59:27;;;;;;;0.10;0.10;;;;;;;;;;5070118;28;20039;-80
2023/10/21 07:01:52;;;;;;;0.10;0.10;;;;;;;;;;5081758;28;20162;-78
2023/10/21 07:04:18;;;;;;;0.10;0.10;;;;;;;;;;5067206;28;20783;-78
2023/10/21 07:06:45;;;;;;;0.10;0.10;;;;;;;;;;5078315;28;20093;-77
2023/10/21 07:09:11;;;;;;;0.10;0.10;;;;;;;;;;5079768;28;20032;-79
2023/10/21 07:11:37;;;;;;;0.10;0.10;;;;;;;;;;5070052;28;20234;-80
2023/10/21 07:14:03;;;;;;;0.10;0.10;;;;;;;;;;5083986;28;20435;-77
2023/10/21 07:16:29;;;;;;;0.10;0.10;;;;;;;;;;5078266;28;20047;-78
2023/10/21 07:18:54;;;;;;;0.20;0.20;;;;;;;;;;5068881;28;20028;-74
2023/10/21 07:21:20;;;;;;;0.10;0.10;;;;;;;;;;5068554;28;20107;-78
2023/10/21 07:23:46;;;;;;;0.10;0.10;;;;;;;;;;5069638;28;20028;-79
2023/10/21 07:26:11;;;;;;;0.20;0.20;;;;;;;;;;5069668;28;20037;-77
2023/10/21 07:28:38;;;;;;;0.10;0.10;;;;;;;;;;5069692;28;20488;-81
2023/10/21 07:31:03;;;;;;;0.10;0.10;;;;;;;;;;5060099;28;20441;-77
2023/10/21 07:33:29;;;;;;;0.17;0.17;;;;;;;;;;5089699;28;20032;-77
2023/10/21 07:35:55;;;;;;;0.15;0.15;;;;;;;;;;5089808;28;20028;-77
2023/10/21 07:38:21;;;;;;;0.10;0.10;;;;;;;;;;5089963;28;20498;-77
2023/10/21 07:40:48;;;;;;;0.13;0.13;;;;;;;;;;5086388;28;20459;-77
2023/10/21 07:43:16;;;;;;;0.10;0.10;;;;;;;;;;5078127;28;20021;-77
2023/10/21 07:45:42;;;;;;;0.10;0.10;;;;;;;;;;5082381;28;20084;-77
2023/10/21 07:48:07;;;;;;;0.10;0.10;;;;;;;;;;5084835;28;20475;-76
2023/10/21 07:50:33;;;;;;;0.10;0.10;;;;;;;;;;5081741;28;20035;-77
2023/10/21 07:52:58;;;;;;;0.10;0.10;;;;;;;;;;5077513;28;20077;-77
2023/10/21 07:55:24;;;;;;;0.10;0.10;;;;;;;;;;5078459;28;20073;-78
2023/10/21 07:57:50;;;;;;;0.10;0.10;;;;;;;;;;5071061;28;20458;-77
2023/10/21 08:00:15;;;;;;;0.10;0.10;;;;;;;;;;5073432;28;20048;-77
2023/10/21 08:02:42;;;;;;;0.10;0.10;;;;;;;;;;5089103;28;20028;-76
2023/10/21 08:05:08;;;;;;;0.10;0.10;;;;;;;;;;5089448;28;20472;-76
2023/10/21 08:07:35;;;;;;;0.30;0.30;;;;;;;;;;5089580;28;20020;-76
2023/10/21 08:10:04;;;;;;;0.20;0.20;;;;;;;;;;5088830;28;20039;-78
2023/10/21 08:12:34;;;;;;;0.10;0.10;;;;;;;;;;5085089;28;20032;-77
2023/10/21 08:15:04;;;;;;;0.17;0.17;;;;;;;;;;5089319;28;20396;-76
2023/10/21 08:17:29;;;;;;;0.20;0.20;;;;;;;;;;5069797;28;20032;-75
2023/10/21 08:19:56;;;;;;;0.20;0.20;;;;;;;;;;5067612;28;20031;-76
2023/10/21 08:22:22;;;;;;;0.10;0.10;;;;;;;;;;5087213;28;20040;-77
2023/10/21 08:24:47;;;;;;;0.10;0.10;;;;;;;;;;5068916;28;20036;-76
2023/10/21 08:27:13;;;;;;;0.68;0.57;;;;;;;;;;5087106;28;20052;-77
2023/10/21 08:29:38;;;;;;;0.10;0.10;;;;;;;;;;5086442;28;20036;-76
2023/10/21 08:32:04;;;;;;;0.10;0.10;;;;;;;;;;5087720;28;20048;-76
2023/10/21 08:34:32;;;;;;;0.63;0.63;;;;;;;;;;5069965;28;20036;-76
2023/10/21 08:36:57;;;;;;;0.10;0.10;;;;;;;;;;5087266;28;20040;-76
2023/10/21 08:39:23;;;;;;;0.30;0.30;;;;;;;;;;5087119;28;20058;-76
2023/10/21 08:41:49;;;;;;;0.10;0.10;;;;;;;;;;5068030;28;20032;-76
2023/10/21 08:44:16;;;;;;;0.20;0.20;;;;;;;;;;5086303;28;20036;-75
2023/10/21 08:46:41;;;;;;;0.10;0.10;;;;;;;;;;5086818;28;20080;-76
2023/10/21 08:49:09;;;;;;;0.10;0.10;;;;;;;;;;5086955;28;20048;-76
2023/10/21 08:51:35;;;;;;;0.10;0.10;;;;;;;;;;5088603;28;20103;-76
2023/10/21 08:54:03;;;;;;;0.10;0.10;;;;;;;;;;5088576;28;20054;-76
2023/10/21 08:56:29;;;;;;;0.20;0.20;;;;;;;;;;5088297;28;20061;-75
2023/10/21 08:58:56;;;;;;;0.20;0.20;;;;;;;;;;5088427;28;20114;-76
2023/10/21 09:01:22;;;;;;;0.10;0.10;;;;;;;;;;5069945;28;20031;-77
2023/10/21 09:03:49;;;;;;;1.20;0.47;;;;;;;;;;5088885;28;20044;-76
2023/10/21 09:06:17;;;;;;;2.75;2.55;;;;;;;;;;5088984;28;20024;-76
2023/10/21 09:08:43;;;;;;;0.10;0.10;;;;;;;;;;5088722;28;20380;-76
2023/10/21 09:11:10;;;;;;;0.38;0.30;;;;;;;;;;5088339;28;20077;-76
2023/10/21 09:13:37;;;;;;;0.10;0.10;;;;;;;;;;5088360;28;20507;-76
2023/10/21 09:16:17;;;;;;;0.22;0.20;;;;;;;;;;5070173;28;20518;-76
2023/10/21 09:18:55;;;;;;;0.20;0.20;;;;;;;;;;5088128;28;20109;-76
2023/10/21 09:21:41;;;;;;;0.10;0.10;;;;;;;;;;5070264;28;20032;-75
2023/10/21 09:24:10;;;;;;;2.17;0.30;;;;;;;;;;5087931;28;20565;-76
2023/10/21 09:26:36;;;;;;;0.73;0.73;;;;;;;;;;5088261;28;20032;-77
2023/10/21 09:29:06;;;;;;;0.63;0.63;;;;;;;;;;5088302;28;20031;-76
2023/10/21 09:31:43;;;;;;;0.10;0.10;;;;;;;;;;5088227;28;20028;-76
2023/10/21 09:34:09;;;;;;;0.10;0.10;;;;;;;;;;5087966;28;20036;-76
2023/10/21 09:36:39;;;;;;;0.40;0.40;;;;;;;;;;5087544;28;20032;-76
2023/10/21 09:39:05;;;;;;;1.95;1.08;;;;;;;;;;5088184;28;20525;-77
2023/10/21 09:41:30;;;;;;;0.10;0.10;;;;;;;;;;5088221;28;20028;-76
2023/10/21 09:43:57;;;;;;;0.20;0.20;;;;;;;;;;5087997;28;20062;-76
2023/10/21 09:46:25;;;;;;;0.10;0.10;;;;;;;;;;5087880;28;20028;-76
2023/10/21 09:48:52;;;;;;;0.43;0.30;;;;;;;;;;5069518;28;20035;-75
2023/10/21 09:51:17;;;;;;;0.20;0.20;;;;;;;;;;5086988;28;20027;-75
2023/10/21 09:53:47;;;;;;;0.10;0.10;;;;;;;;;;5089295;28;20040;-77
2023/10/21 09:56:15;;;;;;;0.10;0.10;;;;;;;;;;5091298;28;20036;-76
2023/10/21 09:58:41;;;;;;;0.43;0.30;;;;;;;;;;5091032;28;20388;-75
2023/10/21 10:01:10;;;;;;;0.10;0.10;;;;;;;;;;5091301;28;20035;-76
2023/10/21 10:03:36;;;;;;;;;;;;;;;;;;5090535;28;20040;-76
2023/10/21 10:06:06;;;;;;;0.10;0.10;;;;;;;;;;5090466;28;19919;-75
2023/10/21 10:08:35;;;;;;;0.10;0.10;;;;;;;;;;5090994;28;20150;-76
2023/10/21 10:11:11;;;;;;;0.10;0.10;;;;;;;;;;5090559;28;20032;-76
2023/10/21 10:13:42;;;;;;;0.17;0.17;;;;;;;;;;5071819;28;20381;-76
2023/10/21 10:16:23;;;;;;;0.20;0.20;;;;;;;;;;5089918;28;20036;-76
2023/10/21 10:18:55;;;;;;;2.30;2.08;;;;;;;;;;5089388;28;20118;-76
2023/10/21 10:21:21;;;;;;;0.38;0.38;;;;;;;;;;5089688;28;20118;-76
2023/10/21 10:23:48;;;;;;;1.20;0.20;;;;;;;;;;5089814;28;20128;-76
2023/10/21 10:26:28;;;;;;;0.20;0.20;;;;;;;;;;5088914;28;20028;-75
2023/10/21 10:28:54;;;;;;;5.63;0.73;;;;;;;;;;5073151;28;20035;-77
2023/10/21 10:31:21;;;;;;;0.10;0.10;;;;;;;;;;5091087;28;20020;-77
2023/10/21 10:33:50;;;;;;;0.10;0.10;;;;;;;;;;5072941;28;20059;-77
2023/10/21 10:36:26;;;;;;;0.35;0.35;;;;;;;;;;5072526;28;20032;-76
2023/10/21 10:38:54;;;;;;;0.35;0.35;;;;;;;;;;5090549;28;20032;-76
2023/10/21 10:41:20;;;;;;;0.10;0.10;;;;;;;;;;5091035;28;20040;-77
2023/10/21 10:43:49;;;;;;;0.40;0.40;;;;;;;;;;5072639;28;20550;-78
2023/10/21 10:46:19;;;;;;;0.10;0.10;;;;;;;;;;5090464;28;20063;-75
2023/10/21 10:48:46;;;;;;;0.10;0.10;;;;;;;;;;5072288;28;20035;-76
2023/10/21 10:51:15;;;;;;;0.10;0.10;;;;;;;;;;5071806;28;20484;-75
2023/10/21 10:53:48;;;;;;;0.20;0.20;;;;;;;;;;5090763;28;20036;-75
2023/10/21 10:56:18;;;;;;;0.20;0.20;;;;;;;;;;5089872;28;20065;-74
2023/10/21 10:58:47;;;;;;;0.20;0.20;;;;;;;;;;5089862;28;20548;-75
2023/10/21 11:01:26;;;;;;;1.47;0.77;;;;;;;;;;5081427;28;20037;-76
2023/10/21 11:03:58;;;;;;;4.13;1.27;;;;;;;;;;5069410;28;20691;-75
2023/10/21 11:06:28;;;;;;;2.72;0.65;;;;;;;;;;5068433;28;20029;-76
2023/10/21 11:08:54;;;;;;;17.65;1.42;;;;;;;;;;5067765;28;20033;-77
2023/10/21 11:11:19;;;;;;;3.75;0.20;;;;;;;;;;5082665;28;20061;-77
2023/10/21 11:13:46;;;;;;;0.20;0.20;;;;;;;;;;5087389;28;20028;-75
2023/10/21 11:16:11;;;;;;;0.63;0.30;;;;;;;;;;5087876;28;20047;-75
2023/10/21 11:18:38;;;;;;;0.40;0.20;;;;;;;;;;5087751;28;20028;-75
2023/10/21 11:21:05;;;;;;;1.75;0.95;;;;;;;;;;5087845;28;20048;-75
2023/10/21 11:23:30;;;;;;;0.47;0.40;;;;;;;;;;5088860;28;20039;-75
2023/10/21 11:25:58;;;;;;;0.38;0.25;;;;;;;;;;5089592;28;20039;-75
2023/10/21 11:28:25;;;;;;;0.93;0.30;;;;;;;;;;5089836;28;20042;-75
2023/10/21 11:30:52;;;;;;;0.10;0.10;;;;;;;;;;5086472;28;20484;-76
2023/10/21 11:33:18;;;;;;;0.10;0.10;;;;;;;;;;5089755;28;20062;-75
2023/10/21 11:35:45;;;;;;;2.92;0.65;;;;;;;;;;5089889;28;20024;-76
2023/10/21 11:38:16;;;;;;;0.20;0.20;;;;;;;;;;5071784;28;20036;-75
2023/10/21 11:40:43;;;;;;;0.10;0.10;;;;;;;;;;5086283;28;20040;-76
2023/10/21 11:43:12;;;;;;;0.13;0.13;;;;;;;;;;5087767;28;20079;-75
2023/10/21 11:45:38;;;;;;;0.60;0.47;;;;;;;;;;5081542;28;20337;-76
2023/10/21 11:48:09;;;;;;;0.20;0.20;;;;;;;;;;5087190;28;20036;-75
2023/10/21 11:50:42;;;;;;;0.13;0.13;;;;;;;;;;5089223;28;20024;-75
2023/10/21 11:53:08;;;;;;;0.32;0.30;;;;;;;;;;5089747;28;20039;-75
2023/10/21 12:22:22;;;;;;;0.20;0.20;;;;;;;;;;5075526;28;20030;-75
2023/10/21 12:28:14;;;;;;;0.10;0.10;;;;;;;;;;5068589;28;20369;-76
2023/10/21 12:40:34;;;;;;;0.20;0.20;;;;;;;;;;5088814;28;20036;-76
2023/10/21 12:45:49;;;;;;;0.68;0.38;;;;;;;;;;5088833;28;20434;-75
2023/10/21 12:48:17;;;;;;;0.10;0.10;;;;;;;;;;5088638;28;20472;-74
2023/10/21 12:50:43;;;;;;;0.90;0.20;;;;;;;;;;5088832;28;20035;-75
2023/10/21 12:53:10;;;;;;;0.20;0.20;;;;;;;;;;5088785;28;20082;-75
2023/10/21 12:55:37;;;;;;;0.20;0.20;;;;;;;;;;5088687;28;20063;-76
2023/10/21 12:58:03;;;;;;;0.10;0.10;;;;;;;;;;5088426;28;20044;-75
2023/10/21 13:00:29;;;;;;;0.13;0.13;;;;;;;;;;5088292;28;20165;-75
2023/10/21 13:02:55;;;;;;;0.15;0.15;;;;;;;;;;5088877;28;20526;-76
2023/10/21 13:05:21;;;;;;;0.15;0.15;;;;;;;;;;5070419;28;20043;-76
2023/10/21 13:07:47;;;;;;;0.68;0.30;;;;;;;;;;5088892;28;20376;-75
2023/10/21 13:10:13;;;;;;;0.20;0.20;;;;;;;;;;5084637;28;20126;-76
2023/10/21 13:12:39;;;;;;;0.10;0.10;;;;;;;;;;5085791;28;20503;-76
2023/10/21 13:15:14;;;;;;;3.65;0.45;;;;;;;;;;5079665;28;20032;-76
2023/10/21 13:17:40;;;;;;;0.13;0.13;;;;;;;;;;5086546;28;20082;-76
2023/10/21 13:20:19;;;;;;;0.13;0.13;;;;;;;;;;5086747;28;20538;-76
2023/10/21 13:22:45;;;;;;;0.13;0.13;;;;;;;;;;5085407;28;20638;-76
2023/10/21 13:25:13;;;;;;;0.13;0.13;;;;;;;;;;5086513;28;20059;-76
2023/10/21 13:27:42;;;;;;;0.10;0.10;;;;;;;;;;5084054;28;20046;-77
2023/10/21 13:30:13;;;;;;;0.20;0.20;;;;;;;;;;5086995;28;20028;-75
2023/10/21 13:32:42;;;;;;;0.10;0.10;;;;;;;;;;5089182;28;20471;-75
2023/10/21 13:35:11;;;;;;;0.20;0.20;;;;;;;;;;5088476;28;20020;-75
2023/10/21 13:37:40;;;;;;;0.20;0.20;;;;;;;;;;5089219;28;20044;-75
2023/10/21 13:40:14;;;;;;;0.20;0.20;;;;;;;;;;5089387;28;20032;-75
2023/10/21 13:42:45;;;;;;;0.20;0.20;;;;;;;;;;5089636;28;20892;-75
2023/10/21 13:45:20;;;;;;;0.45;0.30;;;;;;;;;;5089185;28;20036;-76
2023/10/21 13:47:53;;;;;;;0.55;0.30;;;;;;;;;;5089788;28;20047;-75
2023/10/21 13:50:21;;;;;;;0.13;0.13;;;;;;;;;;5089248;28;20032;-75
2023/10/21 13:52:48;;;;;;;0.10;0.10;;;;;;;;;;5088135;28;20028;-75
2023/10/21 13:55:16;;;;;;;0.20;0.20;;;;;;;;;;5089373;28;20040;-75
2023/10/21 13:57:43;;;;;;;0.20;0.20;;;;;;;;;;5088858;28;20048;-75
2023/10/21 14:00:25;;;;;;;0.20;0.20;;;;;;;;;;5088842;28;20032;-75
2023/10/21 14:02:51;;;;;;;0.45;0.45;;;;;;;;;;5089137;28;20031;-76
2023/10/21 14:05:17;;;;;;;0.20;0.20;;;;;;;;;;5080598;28;20044;-75
2023/10/21 14:07:44;;;;;;;0.20;0.20;;;;;;;;;;5080204;28;20039;-76
2023/10/21 14:10:10;;;;;;;0.20;0.20;;;;;;;;;;5076046;28;20036;-76
2023/10/21 14:12:36;;;;;;;0.20;0.20;;;;;;;;;;5059594;28;20123;-76
2023/10/21 14:15:05;;;;;;;0.20;0.20;;;;;;;;;;5068802;28;20499;-75
2023/10/21 14:17:34;;;;;;;0.15;0.15;;;;;;;;;;5068315;28;20044;-76
2023/10/21 14:19:59;;;;;;;0.20;0.20;;;;;;;;;;5079770;28;20123;-76
2023/10/21 14:22:25;;;;;;;0.20;0.20;;;;;;;;;;5068387;28;20108;-75
2023/10/21 14:24:51;;;;;;;0.20;0.20;;;;;;;;;;5078624;28;20055;-77
2023/10/21 14:27:19;;;;;;;0.20;0.20;;;;;;;;;;5070067;28;20021;-76
2023/10/21 14:29:46;;;;;;;0.10;0.10;;;;;;;;;;5068779;28;20044;-76
2023/10/21 14:32:13;;;;;;;0.25;0.20;;;;;;;;;;5068615;28;20032;-76
2023/10/21 14:34:38;;;;;;;0.10;0.10;;;;;;;;;;5068118;28;20041;-75
2023/10/21 14:37:07;;;;;;;0.10;0.10;;;;;;;;;;5074672;28;20032;-75
2023/10/21 14:39:35;;;;;;;0.10;0.10;;;;;;;;;;5057467;28;20042;-75
2023/10/21 14:42:01;;;;;;;0.20;0.20;;;;;;;;;;5056523;28;20053;-75
2023/10/21 14:44:27;;;;;;;0.47;0.20;;;;;;;;;;5077620;28;20106;-76
2023/10/21 14:46:53;;;;;;;0.38;0.38;;;;;;;;;;5080242;28;20078;-76
2023/10/21 14:49:18;;;;;;;0.10;0.10;;;;;;;;;;5072418;28;20091;-76
2023/10/21 14:51:44;;;;;;;0.20;0.20;;;;;;;;;;5053763;28;20038;-76
2023/10/21 14:54:10;;;;;;;0.20;0.20;;;;;;;;;;5076763;28;20480;-76
2023/10/21 14:56:36;;;;;;;0.10;0.10;;;;;;;;;;5071211;28;20039;-75
2023/10/21 14:59:05;;;;;;;0.20;0.20;;;;;;;;;;5079245;28;20048;-76
2023/10/21 15:01:30;;;;;;;0.20;0.20;;;;;;;;;;5088240;28;20066;-75
2023/10/21 15:03:56;;;;;;;0.20;0.20;;;;;;;;;;5087884;28;20060;-76
2023/10/21 15:06:22;;;;;;;0.10;0.10;;;;;;;;;;5088358;28;20048;-75
2023/10/21 15:08:48;;;;;;;0.10;0.10;;;;;;;;;;5087419;28;20833;-76
2023/10/21 15:11:14;;;;;;;0.20;0.20;;;;;;;;;;5088383;28;20128;-75
2023/10/21 15:13:40;;;;;;;10.68;4.75;;;;;;;;;;5088124;28;20036;-76
2023/10/21 15:16:06;;;;;;;0.10;0.10;;;;;;;;;;5088033;28;20039;-76
2023/10/21 15:18:32;;;;;;;0.20;0.20;;;;;;;;;;5069622;28;20040;-76
2023/10/21 15:21:17;;;;;;;0.10;0.10;;;;;;;;;;5087596;28;20069;-75
2023/10/21 15:23:43;;;;;;;0.17;0.17;;;;;;;;;;5077170;28;20057;-76